Time;durP1;ratioP1;P1;durP2;ratioP2;P2;SDS_P1;SDS_P2;PMS_P1;PMS_P2;Temp;Humidity;BMP_temperature;BMP_pressure;BME280_temperature;BME280_humidity;BME280_pressure;Samples;Min_cycle;Max_cycle;Signal;HPM_P1;HPM_P2
2023/12/05 00:01:40;;;;;;;22.58;18.23;;;;;;;1.58;98.20;99282.53;4915887;29;20099;-69
2023/12/05 00:04:54;;;;;;;;;;;;;;;1.56;99.14;99279.19;4916457;29;20075;-69
2023/12/05 00:08:06;;;;;;;42.38;28.95;;;;;;;1.59;99.23;99275.66;4916046;29;20657;-69
2023/12/05 00:11:28;;;;;;;33.88;24.30;;;;;;;1.54;99.76;99268.09;4916347;29;20070;-69
2023/12/05 00:14:48;;;;;;;27.88;18.73;;;;;;;1.55;100.00;99263.78;4915854;29;20096;-69
2023/12/05 00:18:08;;;;;;;28.77;21.15;;;;;;;1.47;100.00;99258.91;4917706;29;20127;-69
2023/12/05 00:21:35;;;;;;;26.00;19.58;;;;;;;1.53;100.00;99257.81;4919362;29;20059;-69
2023/12/05 00:25:01;;;;;;;21.20;16.30;;;;;;;1.55;99.75;99246.56;4919536;29;20047;-69
2023/12/05 00:28:24;;;;;;;27.27;18.48;;;;;;;1.53;100.00;99263.84;4919487;29;20128;-69
2023/12/05 00:31:46;;;;;;;23.45;17.02;;;;;;;1.54;100.00;99262.94;4907930;29;20111;-69
2023/12/05 00:35:10;;;;;;;28.98;19.25;;;;;;;1.58;100.00;99261.09;4919023;29;20067;-69
2023/12/05 00:38:23;;;;;;;22.48;17.27;;;;;;;1.57;100.00;99259.41;4918922;29;20119;-69
2023/12/05 00:41:51;;;;;;;22.02;17.48;;;;;;;1.67;99.49;99249.63;4919465;29;20553;-69
2023/12/05 00:45:14;;;;;;;23.10;16.95;;;;;;;1.61;99.71;99251.50;4919252;29;20043;-69
2023/12/05 00:48:36;;;;;;;20.33;16.05;;;;;;;1.67;99.74;99249.63;4919129;29;20115;-69
2023/12/05 00:52:01;;;;;;;20.90;15.43;;;;;;;1.75;99.52;99243.28;4919155;29;20418;-69
2023/12/05 00:55:25;;;;;;;21.08;16.65;;;;;;;1.67;99.53;99234.16;4918955;29;20066;-69
2023/12/05 00:58:51;;;;;;;18.20;14.77;;;;;;;1.65;99.43;99220.47;4919002;29;20063;-69
2023/12/05 01:02:11;;;;;;;20.65;15.20;;;;;;;1.62;99.30;99232.56;4918413;29;20051;-69
2023/12/05 01:05:25;;;;;;;18.70;15.02;;;;;;;1.63;99.74;99231.69;4918881;29;20578;-69
2023/12/05 01:08:33;;;;;;;23.73;15.93;;;;;;;1.67;99.66;99227.28;4918780;29;20522;-69
2023/12/05 01:11:49;;;;;;;;;;;;;;;1.72;99.56;99221.94;4907785;29;20526;-69
2023/12/05 01:15:04;;;;;;;18.70;14.30;;;;;;;1.55;100.00;99225.97;4918837;29;19970;-69
2023/12/05 01:18:34;;;;;;;20.15;15.35;;;;;;;1.62;99.71;99226.59;4918397;29;20063;-69
2023/12/05 01:21:46;;;;;;;18.98;16.05;;;;;;;1.58;100.00;99225.84;4918307;29;20517;-69
2023/12/05 01:25:11;;;;;;;20.42;15.35;;;;;;;1.50;100.00;99224.44;4918497;29;20055;-69
2023/12/05 01:28:31;;;;;;;;;;;;;;;1.51;100.00;99224.41;4918106;29;20050;-69
2023/12/05 01:31:51;;;;;;;18.02;15.07;;;;;;;1.52;100.00;99231.22;4918384;29;19969;-69
2023/12/05 01:35:18;;;;;;;19.02;14.85;;;;;;;1.54;100.00;99231.19;4917651;29;20090;-69
2023/12/05 01:38:48;;;;;;;20.60;16.17;;;;;;;1.64;100.00;99227.38;4918226;29;20127;-69
2023/12/05 01:42:16;;;;;;;20.65;16.15;;;;;;;1.63;100.00;99231.69;4917540;29;20188;-69
2023/12/05 01:45:41;;;;;;;18.98;14.98;;;;;;;1.69;100.00;99229.78;4917057;29;20168;-69
2023/12/05 01:49:06;;;;;;;16.92;13.93;;;;;;;1.71;99.85;99233.97;4917957;29;20529;-69
2023/12/05 01:52:30;;;;;;;17.42;13.95;;;;;;;1.71;100.00;99238.31;4917852;29;20099;-69
2023/12/05 01:56:01;;;;;;;18.95;14.85;;;;;;;1.78;99.29;99221.72;4917980;29;20114;-69
2023/12/05 01:59:27;;;;;;;17.52;15.05;;;;;;;1.79;99.18;99234.56;4917833;29;20063;-69
2023/12/05 02:02:57;;;;;;;18.02;15.07;;;;;;;1.78;99.63;99222.53;4917647;29;20475;-69
2023/12/05 02:06:31;;;;;;;19.77;15.13;;;;;;;1.81;99.31;99217.28;4917795;29;20578;-69
2023/12/05 02:09:58;;;;;;;18.88;14.93;;;;;;;1.85;99.44;99223.16;4917631;29;20047;-69
2023/12/05 02:13:13;;;;;;;17.65;14.18;;;;;;;1.70;99.56;99216.00;4917787;29;20446;-68
2023/12/05 02:16:46;;;;;;;18.95;15.48;;;;;;;1.73;99.90;99219.31;4917028;29;20107;-69
2023/12/05 02:20:11;;;;;;;20.70;15.18;;;;;;;1.76;100.00;99215.78;4917089;29;20059;-69
2023/12/05 02:23:55;;;;;;;20.45;16.77;;;;;;;1.78;99.91;99211.41;4917205;29;20047;-69
2023/12/05 02:27:39;;;;;;;18.42;14.60;;;;;;;1.76;99.85;99216.63;4916551;29;20054;-69
2023/12/05 02:30:49;;;;;;;16.80;14.13;;;;;;;1.82;99.39;99218.13;4916816;29;20127;-69
2023/12/05 02:33:55;;;;;;;18.55;15.52;;;;;;;1.82;100.00;99218.13;4916525;29;20074;-69
2023/12/05 02:37:27;;;;;;;19.38;16.67;;;;;;;1.86;99.30;99219.69;4916455;29;20115;-69
2023/12/05 02:40:46;;;;;;;20.67;16.60;;;;;;;1.81;99.17;99217.28;4916613;29;20529;-69
2023/12/05 02:44:04;;;;;;;16.33;13.73;;;;;;;1.77;99.62;99220.03;4905691;29;20051;-69
2023/12/05 02:47:20;;;;;;;18.80;15.20;;;;;;;1.80;99.80;99214.78;4916460;29;20569;-69
2023/12/05 02:50:37;;;;;;;19.25;16.40;;;;;;;1.79;99.70;99218.25;4916542;29;20445;-69
2023/12/05 02:53:51;;;;;;;18.10;15.25;;;;;;;1.74;100.00;99213.25;4916636;29;20046;-69
2023/12/05 02:57:07;;;;;;;17.75;14.52;;;;;;;1.75;99.96;99216.66;4916932;29;20076;-69
2023/12/05 03:00:27;;;;;;;20.80;16.38;;;;;;;1.79;100.00;99210.53;4916419;29;20127;-69
2023/12/05 03:03:43;;;;;;;22.42;14.70;;;;;;;1.87;100.00;99205.91;4916695;29;20078;-69
2023/12/05 03:06:59;;;;;;;18.73;15.07;;;;;;;1.75;100.00;99214.94;4916227;29;20047;-69
2023/12/05 03:10:13;;;;;;;18.40;15.07;;;;;;;1.76;100.00;99208.06;4916203;29;20047;-69
2023/12/05 03:13:38;;;;;;;18.42;15.93;;;;;;;1.82;99.91;99197.53;4914778;29;20419;-69
2023/12/05 03:17:05;;;;;;;21.38;17.30;;;;;;;1.81;100.00;99198.41;4916562;29;20111;-69
2023/12/05 03:20:31;;;;;;;18.45;15.05;;;;;;;1.80;99.99;99205.28;4916246;29;20422;-69
2023/12/05 03:23:50;;;;;;;17.27;15.00;;;;;;;1.87;99.76;99213.63;4916252;29;20064;-69
2023/12/05 03:27:11;;;;;;;18.23;14.90;;;;;;;1.82;100.00;99210.41;4916426;29;20470;-68
2023/12/05 03:30:27;;;;;;;19.17;15.10;;;;;;;1.87;100.00;99203.31;4916567;29;20084;-68
2023/12/05 03:33:47;;;;;;;22.33;16.98;;;;;;;1.83;99.90;99210.34;4915668;29;20135;-67
2023/12/05 03:37:12;;;;;;;21.67;17.23;;;;;;;1.82;99.82;99198.34;4916393;29;20055;-69
2023/12/05 03:40:22;;;;;;;18.30;15.23;;;;;;;1.82;100.00;99205.25;4916458;29;20075;-74
2023/12/05 03:43:36;;;;;;;19.70;14.95;;;;;;;1.86;99.67;99206.81;4916303;29;20091;-70
2023/12/05 03:46:57;;;;;;;20.98;16.98;;;;;;;1.91;99.92;99204.03;4916411;29;20046;-71
2023/12/05 03:50:16;;;;;;;17.88;15.13;;;;;;;1.93;100.00;99205.66;4916241;29;20070;-79
2023/12/05 03:53:42;;;;;;;20.27;16.13;;;;;;;1.90;99.84;99200.63;4919406;29;20422;-71
2023/12/05 03:57:00;;;;;;;19.80;15.63;;;;;;;1.97;99.71;99207.22;4919807;29;20129;-71
2023/12/05 04:00:16;;;;;;;21.02;15.55;;;;;;;1.85;99.74;99213.72;4919905;29;20058;-74
2023/12/05 04:03:50;;;;;;;18.42;14.90;;;;;;;1.83;100.00;99217.22;4919778;29;20095;-69
2023/12/05 04:07:13;;;;;;;16.50;14.15;;;;;;;1.91;100.00;99210.03;4919381;29;20046;-69
2023/12/05 04:10:40;;;;;;;19.05;15.60;;;;;;;1.95;99.94;99208.22;4919860;29;20573;-69
2023/12/05 04:13:59;;;;;;;23.50;17.52;;;;;;;1.85;100.00;99218.00;4919549;29;20512;-69
2023/12/05 04:17:10;;;;;;;21.65;16.92;;;;;;;1.91;100.00;99222.09;4919105;29;20508;-68
2023/12/05 04:20:18;;;;;;;20.05;16.08;;;;;;;1.93;99.93;99218.56;4919381;29;20054;-69
2023/12/05 04:23:29;;;;;;;22.80;16.95;;;;;;;1.96;99.66;99217.63;4919604;29;20107;-67
2023/12/05 04:26:44;;;;;;;17.95;15.63;;;;;;;1.97;99.48;99217.53;4919483;29;20194;-69
2023/12/05 04:29:58;;;;;;;23.00;17.55;;;;;;;1.98;99.81;99223.53;4919519;29;20096;-68
2023/12/05 04:33:02;;;;;;;24.27;19.15;;;;;;;1.90;99.91;99215.25;4919378;29;20070;-68
2023/12/05 04:36:10;;;;;;;22.88;18.42;;;;;;;1.95;100.00;99214.19;4919400;29;20626;-69
2023/12/05 04:39:16;;;;;;;20.63;16.73;;;;;;;2.04;99.66;99219.00;4919367;29;20092;-68
2023/12/05 04:42:25;;;;;;;22.95;15.85;;;;;;;1.92;100.00;99224.63;4919259;29;20051;-68
2023/12/05 04:45:45;;;;;;;19.63;16.15;;;;;;;1.94;99.92;99217.66;4919220;29;20513;-68
2023/12/05 04:48:56;;;;;;;21.70;17.20;;;;;;;1.93;100.00;99223.72;4919141;29;20131;-69
2023/12/05 04:52:00;;;;;;;24.73;18.95;;;;;;;2.01;99.69;99228.56;4919072;29;20050;-66
2023/12/05 04:55:09;;;;;;;25.42;20.05;;;;;;;1.98;99.82;99229.56;4919301;29;20186;-68
2023/12/05 04:58:16;;;;;;;20.80;17.38;;;;;;;2.00;99.87;99227.75;4907210;29;20390;-66
2023/12/05 05:01:23;;;;;;;21.42;19.10;;;;;;;1.99;99.57;99225.22;4918960;29;20111;-66
2023/12/05 05:04:27;;;;;;;23.02;17.80;;;;;;;1.88;100.00;99233.34;4917784;29;20422;-67
2023/12/05 05:07:33;;;;;;;21.13;16.88;;;;;;;1.90;100.00;99235.88;4918904;29;20078;-68
2023/12/05 05:10:43;;;;;;;22.67;17.38;;;;;;;1.90;100.00;99241.88;4918961;29;20135;-66
2023/12/05 05:13:52;;;;;;;19.83;15.73;;;;;;;1.85;100.00;99231.75;4918686;29;20043;-64
2023/12/05 05:16:57;;;;;;;25.95;17.00;;;;;;;2.00;100.00;99238.03;4918581;29;20466;-64
2023/12/05 05:20:06;;;;;;;19.75;15.35;;;;;;;1.92;100.00;99245.25;4918113;29;20103;-67
2023/12/05 05:23:25;;;;;;;19.45;15.95;;;;;;;1.92;100.00;99240.09;4918210;29;20044;-66
2023/12/05 05:26:55;;;;;;;20.45;16.45;;;;;;;1.96;100.00;99239.06;4918503;29;20051;-66
2023/12/05 05:30:11;;;;;;;22.77;17.42;;;;;;;1.95;100.00;99234.00;4918324;29;20051;-66
2023/12/05 05:33:16;;;;;;;21.10;16.27;;;;;;;1.89;100.00;99234.22;4918314;29;20478;-66
2023/12/05 05:36:37;;;;;;;21.63;17.98;;;;;;;1.95;100.00;99244.28;4918259;29;20051;-66
2023/12/05 05:39:53;;;;;;;24.45;19.38;;;;;;;2.00;100.00;99243.19;4918158;29;20414;-66
2023/12/05 05:43:04;;;;;;;21.20;16.45;;;;;;;2.04;100.00;99243.94;4906649;29;20529;-66
2023/12/05 05:46:08;;;;;;;21.77;17.15;;;;;;;2.08;99.75;99238.59;4917996;29;20103;-66
2023/12/05 05:49:14;;;;;;;20.50;15.73;;;;;;;2.00;99.93;99235.47;4918048;29;20046;-66
2023/12/05 05:52:18;;;;;;;22.73;16.80;;;;;;;2.02;99.80;99240.59;4906369;29;20183;-66
2023/12/05 05:55:24;;;;;;;21.85;16.42;;;;;;;1.98;99.85;99239.88;4917978;29;20127;-66
2023/12/05 05:58:32;;;;;;;21.27;16.52;;;;;;;1.98;100.00;99234.72;4916462;29;20047;-66
2023/12/05 06:01:39;;;;;;;23.40;17.02;;;;;;;1.95;100.00;99236.56;4911266;29;20047;-66
2023/12/05 06:04:45;;;;;;;26.73;18.27;;;;;;;1.99;100.00;99244.13;4917878;29;20410;-66
2023/12/05 06:07:54;;;;;;;21.35;16.75;;;;;;;2.03;100.00;99243.09;4917740;29;20137;-67
2023/12/05 06:11:00;;;;;;;22.02;17.15;;;;;;;2.05;99.92;99237.88;4917656;29;20091;-66
2023/12/05 06:14:04;;;;;;;22.98;16.65;;;;;;;2.08;100.00;99238.59;4917489;29;20099;-67
2023/12/05 06:17:12;;;;;;;25.83;20.30;;;;;;;1.93;100.00;99236.59;4917570;29;20047;-67
2023/12/05 06:20:17;;;;;;;26.13;19.80;;;;;;;2.02;100.00;99233.69;4917407;29;20068;-69
2023/12/05 06:23:24;;;;;;;24.00;18.13;;;;;;;1.99;100.00;99228.66;4905743;29;20510;-68
2023/12/05 06:26:30;;;;;;;24.23;17.85;;;;;;;1.92;100.00;99228.94;4907244;29;20104;-68
2023/12/05 06:29:49;;;;;;;23.38;16.77;;;;;;;1.96;100.00;99233.06;4908857;29;20080;-66
2023/12/05 06:33:00;;;;;;;23.77;18.05;;;;;;;2.02;100.00;99230.28;4910932;29;20039;-66
2023/12/05 06:36:08;;;;;;;23.52;17.35;;;;;;;1.92;100.00;99240.09;4910036;29;20054;-66
2023/12/05 06:39:13;;;;;;;20.90;15.88;;;;;;;1.92;100.00;99244.41;4904698;29;20183;-66
2023/12/05 06:42:19;;;;;;;22.08;18.02;;;;;;;1.95;100.00;99242.56;4909165;29;20075;-66
2023/12/05 06:45:24;;;;;;;25.77;16.38;;;;;;;1.93;100.00;99251.25;4915419;29;20107;-67
2023/12/05 06:48:28;;;;;;;23.25;16.42;;;;;;;1.97;100.00;99248.47;4905309;29;20070;-66
2023/12/05 06:51:38;;;;;;;23.15;16.80;;;;;;;1.98;99.98;99260.50;4914262;29;20059;-65
2023/12/05 06:54:44;;;;;;;24.25;17.85;;;;;;;1.99;100.00;99264.72;4899205;29;20052;-67
2023/12/05 06:57:52;;;;;;;22.10;16.83;;;;;;;1.97;100.00;99261.38;4901250;29;20099;-67
2023/12/05 07:00:58;;;;;;;20.80;15.82;;;;;;;2.01;99.90;99265.53;4904281;29;20119;-67
2023/12/05 07:04:02;;;;;;;21.85;16.15;;;;;;;2.03;100.00;99263.72;4915367;29;20145;-67
2023/12/05 07:07:08;;;;;;;21.92;16.77;;;;;;;2.02;99.66;99266.38;4915460;29;20467;-68
2023/12/05 07:10:12;;;;;;;21.20;16.80;;;;;;;2.02;99.85;99272.34;4915091;29;20514;-67
2023/12/05 07:13:15;;;;;;;22.33;15.70;;;;;;;1.91;100.00;99279.63;4915086;29;20123;-67
2023/12/05 07:16:20;;;;;;;20.20;16.38;;;;;;;1.94;100.00;99284.69;4915789;29;20111;-67
2023/12/05 07:19:26;;;;;;;25.58;18.13;;;;;;;1.95;99.97;99288.13;4914321;29;20064;-67
2023/12/05 07:22:35;;;;;;;23.80;18.92;;;;;;;1.89;100.00;99293.50;4909511;29;20514;-67
2023/12/05 07:25:44;;;;;;;24.25;19.75;;;;;;;1.95;100.00;99288.97;4915021;29;20046;-67
2023/12/05 07:28:49;;;;;;;25.45;19.02;;;;;;;1.90;99.87;99288.28;4914261;29;20090;-67
2023/12/05 07:31:57;;;;;;;23.10;16.52;;;;;;;1.95;99.94;99294.13;4915128;29;20095;-67
2023/12/05 07:35:05;;;;;;;22.00;17.35;;;;;;;1.95;99.61;99301.84;4915073;29;20135;-67
2023/12/05 07:38:11;;;;;;;26.23;19.55;;;;;;;1.92;100.00;99301.97;4915420;29;20063;-67
2023/12/05 07:41:20;;;;;;;26.65;21.27;;;;;;;1.99;99.92;99310.31;4914983;29;20072;-67
2023/12/05 07:44:30;;;;;;;23.55;17.13;;;;;;;2.01;99.77;99311.94;4914963;29;20099;-67
2023/12/05 07:47:37;;;;;;;21.13;17.20;;;;;;;2.03;99.91;99315.28;4914999;29;20074;-67
2023/12/05 07:50:43;;;;;;;22.77;17.02;;;;;;;2.03;99.72;99314.44;4915079;29;20039;-67
2023/12/05 07:53:53;;;;;;;24.38;18.52;;;;;;;2.07;99.25;99316.88;4915208;29;20476;-67
2023/12/05 07:57:01;;;;;;;21.27;17.15;;;;;;;2.08;99.81;99328.03;4915385;29;20418;-68
2023/12/05 08:00:14;;;;;;;21.30;16.45;;;;;;;2.15;99.58;99328.63;4915214;29;20111;-67
2023/12/05 08:03:18;;;;;;;23.17;17.00;;;;;;;2.12;99.64;99328.75;4914869;29;20107;-66
2023/12/05 08:06:28;;;;;;;20.67;14.43;;;;;;;2.01;100.00;99329.97;4914934;29;20465;-66
2023/12/05 08:09:36;;;;;;;21.85;16.50;;;;;;;2.08;100.00;99336.59;4914894;29;20418;-68
2023/12/05 08:12:49;;;;;;;24.92;17.48;;;;;;;2.12;100.00;99333.91;4915142;29;20086;-66
2023/12/05 08:16:08;;;;;;;26.35;20.00;;;;;;;2.10;100.00;99336.53;4914839;29;20099;-66
2023/12/05 08:19:29;;;;;;;21.30;16.13;;;;;;;2.05;100.00;99344.44;4914784;29;20058;-67
2023/12/05 08:22:41;;;;;;;22.30;17.10;;;;;;;2.07;100.00;99340.06;4914692;29;20149;-67
2023/12/05 08:25:48;;;;;;;25.95;18.00;;;;;;;2.13;100.00;99343.31;4914787;29;20054;-67
2023/12/05 08:28:58;;;;;;;23.95;17.38;;;;;;;2.11;100.00;99345.97;4914946;29;20517;-66
2023/12/05 08:32:05;;;;;;;20.80;16.15;;;;;;;2.19;100.00;99345.66;4914542;29;20465;-67
2023/12/05 08:35:09;;;;;;;24.63;16.52;;;;;;;2.30;100.00;99348.69;4914893;29;20092;-67
2023/12/05 08:38:24;;;;;;;26.88;17.17;;;;;;;2.35;100.00;99351.94;4915624;29;20526;-69
2023/12/05 08:41:53;;;;;;;33.17;19.67;;;;;;;2.42;100.00;99358.53;4918091;29;20107;-66
2023/12/05 08:45:03;;;;;;;27.42;21.67;;;;;;;2.52;100.00;99359.91;4917889;29;20043;-66
2023/12/05 08:48:17;;;;;;;23.77;19.85;;;;;;;2.55;99.98;99354.63;4917695;29;20047;-65
2023/12/05 08:55:56;;;;;;;27.98;18.63;;;;;;;2.73;99.64;99358.22;4911120;29;20458;-65
2023/12/05 08:59:21;;;;;;;24.35;17.85;;;;;;;2.72;100.00;99366.03;4917674;29;20104;-65
2023/12/05 09:02:38;;;;;;;24.33;15.00;;;;;;;2.77;100.00;99362.34;4912658;29;20604;-67
2023/12/05 09:05:54;;;;;;;23.35;16.90;;;;;;;2.78;100.00;99365.78;4909317;29;20055;-66
2023/12/05 09:08:58;;;;;;;23.70;15.25;;;;;;;2.72;100.00;99366.88;4917763;29;20111;-68
2023/12/05 09:12:07;;;;;;;19.85;15.38;;;;;;;2.68;100.00;99361.88;4913328;29;20119;-69
2023/12/05 09:15:11;;;;;;;22.55;16.00;;;;;;;2.73;100.00;99359.97;4895885;29;20043;-69
2023/12/05 09:18:40;;;;;;;26.30;15.60;;;;;;;2.83;100.00;99365.59;4904065;29;20467;-69
2023/12/05 09:21:44;;;;;;;29.63;16.05;;;;;;;2.92;100.00;99360.09;4928907;29;20059;-69
2023/12/05 09:24:47;;;;;;;28.48;17.38;;;;;;;2.80;100.00;99363.97;4918131;29;20040;-69
2023/12/05 09:27:51;;;;;;;18.60;15.45;;;;;;;2.89;100.00;99373.13;4916159;29;20054;-70
2023/12/05 09:30:55;;;;;;;26.13;19.85;;;;;;;2.90;100.00;99369.63;4916725;29;20108;-69
2023/12/05 09:33:59;;;;;;;;;;;;;;;3.02;100.00;99375.13;4917354;29;20063;-70
2023/12/05 09:37:03;;;;;;;24.40;15.02;;;;;;;3.06;100.00;99381.03;4905520;29;19970;-68
2023/12/05 09:40:08;;;;;;;23.92;16.75;;;;;;;3.11;100.00;99379.09;4916959;29;20047;-69
2023/12/05 09:43:13;;;;;;;48.90;32.28;;;;;;;3.02;100.00;99384.63;4916479;29;20047;-69
2023/12/05 09:46:20;;;;;;;38.22;30.20;;;;;;;3.09;100.00;99390.41;4905024;29;20051;-69
2023/12/05 09:49:27;;;;;;;47.05;35.45;;;;;;;2.99;100.00;99379.59;4916027;29;20066;-69
2023/12/05 09:52:31;;;;;;;46.90;31.13;;;;;;;3.15;100.00;99374.66;4915656;29;20044;-69
2023/12/05 09:59:21;;;;;;;55.08;45.90;;;;;;;3.09;100.00;99385.22;4915176;29;20530;-69
2023/12/05 10:02:26;;;;;;;50.28;36.67;;;;;;;3.23;100.00;99383.78;4915248;29;20135;-69
2023/12/05 10:05:34;;;;;;;42.40;31.35;;;;;;;3.29;100.00;99387.00;4915292;29;20078;-69
2023/12/05 10:08:39;;;;;;;30.88;25.55;;;;;;;3.22;100.00;99376.94;4914780;29;20082;-69
2023/12/05 10:11:46;;;;;;;34.05;25.50;;;;;;;3.44;100.00;99379.47;4914928;29;20050;-68
2023/12/05 10:14:54;;;;;;;41.85;30.17;;;;;;;3.41;100.00;99379.59;4916184;29;20051;-68
2023/12/05 10:17:59;;;;;;;40.47;33.63;;;;;;;3.35;100.00;99376.41;4915973;29;20131;-68
2023/12/05 10:21:04;;;;;;;43.00;32.45;;;;;;;3.38;100.00;99382.34;4914658;29;20083;-68
2023/12/05 10:24:08;;;;;;;49.33;37.67;;;;;;;3.40;100.00;99375.34;4914985;29;20095;-68
2023/12/05 10:27:16;;;;;;;46.78;33.15;;;;;;;3.44;100.00;99370.88;4914844;29;20047;-68
2023/12/05 10:30:33;;;;;;;47.20;34.17;;;;;;;3.59;100.00;99374.56;4903454;29;20055;-69
2023/12/05 10:33:48;;;;;;;30.80;23.85;;;;;;;3.53;100.00;99369.66;4915543;29;20059;-68
2023/12/05 10:37:11;;;;;;;37.45;24.90;;;;;;;3.69;100.00;99365.53;4915772;29;20082;-69
2023/12/05 10:40:22;;;;;;;26.23;18.30;;;;;;;3.75;100.00;99372.19;4916114;29;20088;-69
2023/12/05 10:43:32;;;;;;;18.48;16.02;;;;;;;3.78;100.00;99372.06;4915951;29;20047;-68
2023/12/05 10:46:39;;;;;;;26.85;17.00;;;;;;;3.89;100.00;99373.28;4915754;29;20058;-69
2023/12/05 10:49:53;;;;;;;20.83;14.75;;;;;;;3.88;100.00;99369.00;4912108;29;20082;-68
2023/12/05 10:53:09;;;;;;;21.25;13.98;;;;;;;3.96;100.00;99364.34;4913920;29;20038;-68
2023/12/05 10:56:24;;;;;;;21.48;15.02;;;;;;;3.91;100.00;99371.44;4915768;29;20130;-68
2023/12/05 10:59:40;;;;;;;14.48;11.57;;;;;;;4.19;100.00;99359.91;4915296;29;20115;-68
2023/12/05 11:02:54;;;;;;;21.83;14.15;;;;;;;4.11;100.00;99367.16;4911740;29;20144;-68
2023/12/05 11:06:13;;;;;;;16.02;13.25;;;;;;;4.19;100.00;99371.09;4911965;29;20136;-69
2023/12/05 11:09:26;;;;;;;24.23;16.48;;;;;;;4.29;100.00;99368.09;4914941;29;20059;-66
2023/12/05 11:12:32;;;;;;;19.00;14.65;;;;;;;4.41;100.00;99365.78;4910689;29;20054;-67
2023/12/05 11:15:39;;;;;;;15.82;13.40;;;;;;;4.62;100.00;99360.53;4914558;29;20513;-67
2023/12/05 11:24:08;;;;;;;8.35;5.00;;;;;;;4.89;100.00;99359.25;4880012;29;20043;-67
2023/12/05 11:27:54;;;;;;;7.70;4.75;;;;;;;4.98;100.00;99362.28;4911277;29;20107;-65
2023/12/05 11:31:26;;;;;;;7.78;5.28;;;;;;;5.12;100.00;99362.47;4912462;29;20426;-66
2023/12/05 11:34:57;;;;;;;7.20;5.65;;;;;;;5.22;100.00;99353.34;4910569;29;20082;-68
2023/12/05 11:38:13;;;;;;;5.75;2.63;;;;;;;5.33;100.00;99356.25;4912023;29;20490;-67
2023/12/05 11:41:18;;;;;;;3.80;1.50;;;;;;;5.41;100.00;99370.56;4900209;29;20525;-66
2023/12/05 11:44:21;;;;;;;5.38;2.67;;;;;;;5.36;100.00;99356.09;4905927;29;20108;-67
2023/12/05 11:47:27;;;;;;;;;;;;;;;5.42;100.00;99356.69;4909535;29;20096;-68
2023/12/05 11:50:50;;;;;;;2.40;1.30;;;;;;;5.49;100.00;99360.69;4913867;29;19922;-67
2023/12/05 11:54:11;;;;;;;6.72;3.03;;;;;;;5.53;100.00;99355.25;4916081;29;20047;-67
2023/12/05 11:57:29;;;;;;;3.25;1.48;;;;;;;5.63;100.00;99355.63;4915921;29;20095;-65
2023/12/05 12:00:37;;;;;;;2.17;0.77;;;;;;;5.79;99.59;99353.09;4914797;29;20143;-71
2023/12/05 12:04:28;;;;;;;2.88;1.20;;;;;;;5.95;99.88;99358.38;4896472;29;20134;-70
2023/12/05 12:07:56;;;;;;;4.22;2.92;;;;;;;6.15;99.14;99350.38;4914381;29;20055;-67
2023/12/05 12:11:05;;;;;;;5.05;1.23;;;;;;;5.99;99.50;99355.50;4896912;29;20414;-67
2023/12/05 12:14:18;;;;;;;4.07;1.55;;;;;;;6.05;97.71;99355.19;4908737;29;20055;-67
2023/12/05 12:17:25;;;;;;;3.47;1.20;;;;;;;6.05;97.31;99360.38;4919176;29;20394;-66
2023/12/05 12:20:33;;;;;;;2.10;0.70;;;;;;;6.01;96.67;99352.84;4900022;29;20052;-67
2023/12/05 12:23:38;;;;;;;1.77;0.70;;;;;;;6.16;96.64;99354.66;4897478;29;20127;-67
2023/12/05 12:26:55;;;;;;;1.55;0.52;;;;;;;6.09;96.16;99358.47;4905730;29;20050;-67
2023/12/05 12:29:59;;;;;;;6.80;1.13;;;;;;;5.97;97.97;99361.72;4918508;29;20070;-68
2023/12/05 12:33:05;;;;;;;1.52;0.65;;;;;;;5.92;97.19;99359.31;4907427;29;20039;-66
2023/12/05 12:36:12;;;;;;;2.50;0.80;;;;;;;5.93;97.67;99368.81;4907551;29;20055;-67
2023/12/05 12:39:18;;;;;;;3.22;1.15;;;;;;;5.83;96.89;99372.75;4899866;29;20127;-71
2023/12/05 12:42:25;;;;;;;4.07;1.20;;;;;;;5.81;98.43;99372.84;4908106;29;20514;-67
2023/12/05 12:45:31;;;;;;;4.28;1.05;;;;;;;5.82;99.97;99374.53;4905582;29;20111;-68
2023/12/05 12:48:36;;;;;;;4.88;1.40;;;;;;;5.84;99.03;99374.47;4917379;29;20113;-67
2023/12/05 12:51:43;;;;;;;3.03;1.00;;;;;;;5.75;99.45;99378.34;4918124;29;20569;-67
2023/12/05 12:54:53;;;;;;;1.63;0.60;;;;;;;5.65;100.00;99371.09;4918239;29;20043;-66
2023/12/05 12:58:04;;;;;;;2.83;1.02;;;;;;;5.54;100.00;99375.06;4906231;29;20058;-66
2023/12/05 13:01:13;;;;;;;3.60;0.88;;;;;;;5.40;100.00;99384.47;4917492;29;20047;-67
2023/12/05 13:04:23;;;;;;;1.67;0.60;;;;;;;5.48;100.00;99379.72;4917432;29;20058;-66
2023/12/05 13:07:30;;;;;;;4.13;1.20;;;;;;;5.31;100.00;99383.16;4917567;29;20051;-67
2023/12/05 13:10:41;;;;;;;2.22;1.10;;;;;;;5.36;99.22;99387.22;4914638;29;20051;-67
2023/12/05 13:13:45;;;;;;;3.10;0.77;;;;;;;5.41;100.00;99399.09;4908408;29;20051;-67
2023/12/05 13:16:51;;;;;;;3.10;0.60;;;;;;;5.31;100.00;99393.53;4914728;29;20083;-67
2023/12/05 13:20:04;;;;;;;2.80;0.40;;;;;;;5.25;100.00;99394.66;4898818;29;20050;-67
2023/12/05 13:26:57;;;;;;;;;;;;;;;;;;;;;
2023/12/05 13:30:20;;;;;;;2.17;1.10;;;;;;;5.47;100.00;99401.38;4914530;29;20046;-67
2023/12/05 13:33:37;;;;;;;2.08;0.60;;;;;;;5.34;100.00;99398.56;4911938;29;20095;-65
2023/12/05 13:36:47;;;;;;;2.70;0.70;;;;;;;5.34;100.00;99394.22;4915752;29;20086;-67
2023/12/05 13:39:51;;;;;;;0.90;0.30;;;;;;;5.39;99.54;99403.50;4915787;29;20102;-67
2023/12/05 13:42:55;;;;;;;2.92;0.43;;;;;;;5.32;100.00;99396.03;4909955;29;20055;-67
2023/12/05 13:46:00;;;;;;;1.30;0.38;;;;;;;5.34;100.00;99404.56;4916019;29;20055;-67
2023/12/05 13:49:06;;;;;;;1.80;0.60;;;;;;;5.28;99.01;99393.66;4916620;29;20051;-69
2023/12/05 13:52:10;;;;;;;1.20;0.40;;;;;;;5.42;97.11;99395.56;4916060;29;20046;-68
2023/12/05 13:55:14;;;;;;;1.60;0.30;;;;;;;5.40;99.00;99400.03;4916534;29;20055;-66
2023/12/05 13:58:18;;;;;;;1.23;0.38;;;;;;;5.31;99.33;99406.47;4916479;29;20046;-65
2023/12/05 14:01:32;;;;;;;2.58;0.35;;;;;;;5.18;100.00;99408.81;4916957;29;20080;-65
2023/12/05 14:09:31;;;;;;;1.20;0.50;;;;;;;5.20;96.98;99409.59;4917213;29;20399;-67
2023/12/05 14:12:36;;;;;;;1.80;0.60;;;;;;;5.25;98.54;99409.38;4917271;29;20078;-65
2023/12/05 14:16:06;;;;;;;2.00;0.70;;;;;;;5.31;98.27;99420.28;4916233;29;20114;-68
2023/12/05 14:19:10;;;;;;;3.53;1.42;;;;;;;5.28;100.00;99415.25;4915850;29;20051;-64
2023/12/05 14:22:16;;;;;;;3.03;1.45;;;;;;;5.22;98.92;99425.91;4915505;29;20123;-69
2023/12/05 14:25:22;;;;;;;1.90;0.98;;;;;;;5.12;97.73;99429.84;4904046;29;20043;-69
2023/12/05 14:28:30;;;;;;;2.03;0.40;;;;;;;5.21;96.83;99436.34;4915811;29;20104;-68
2023/12/05 14:31:34;;;;;;;3.20;0.40;;;;;;;5.26;98.47;99442.13;4914574;29;20074;-68
2023/12/05 14:34:38;;;;;;;0.63;0.17;;;;;;;5.03;100.00;99438.03;4912349;29;20411;-68
2023/12/05 14:37:42;;;;;;;1.08;0.40;;;;;;;4.97;99.52;99444.34;4914856;29;20047;-68
2023/12/05 14:40:46;;;;;;;2.30;0.55;;;;;;;5.04;99.75;99452.66;4915313;29;20080;-68
2023/12/05 14:43:50;;;;;;;2.20;0.50;;;;;;;4.93;100.00;99449.75;4914562;29;20142;-68
2023/12/05 14:46:54;;;;;;;1.48;0.43;;;;;;;5.05;100.00;99454.38;4914482;29;20107;-68
2023/12/05 14:50:02;;;;;;;2.10;0.60;;;;;;;4.95;100.00;99459.13;4914244;29;20063;-68
2023/12/05 14:53:11;;;;;;;1.27;0.40;;;;;;;4.68;100.00;99469.00;4914677;29;20615;-68
2023/12/05 14:56:17;;;;;;;3.85;0.85;;;;;;;4.85;100.00;99476.84;4913998;29;20058;-68
2023/12/05 14:59:21;;;;;;;2.20;0.50;;;;;;;4.81;97.77;99472.69;4914648;29;20481;-68
2023/12/05 15:02:25;;;;;;;1.35;0.55;;;;;;;4.96;99.09;99470.34;4914946;29;20115;-68
2023/12/05 15:05:29;;;;;;;;;;;;;;;4.92;97.89;99479.16;4916256;29;20050;-68
2023/12/05 15:08:58;;;;;;;;;;;;;;;4.95;96.51;99479.03;4916662;29;19971;-68
2023/12/05 15:12:03;;;;;;;5.68;3.33;;;;;;;4.90;98.00;99474.88;4914837;29;20366;-68
2023/12/05 15:15:08;;;;;;;1.85;0.50;;;;;;;4.63;100.00;99483.91;4914969;29;20554;-68
2023/12/05 15:18:13;;;;;;;1.40;0.50;;;;;;;4.66;100.00;99488.94;4914953;29;20047;-68
2023/12/05 15:21:17;;;;;;;;;;;;;;;4.56;100.00;99495.41;4915341;29;20096;-68
2023/12/05 15:24:23;;;;;;;2.65;0.82;;;;;;;4.47;100.00;99490.66;4915024;29;19925;-68